Time;durP1;ratioP1;P1;durP2;ratioP2;P2;SDS_P1;SDS_P2;PMS_P1;PMS_P2;Temp;Humidity;BMP_temperature;BMP_pressure;BME280_temperature;BME280_humidity;BME280_pressure;Samples;Min_cycle;Max_cycle;Signal;HPM_P1;HPM_P2
2023/12/15 00:01:41;;;;;;;32.40;17.70;;;6.50;99.90;;;;;;4988031;28;20513;-67
2023/12/15 00:04:07;;;;;;;34.53;18.00;;;6.60;99.90;;;;;;4989960;28;20068;-67
2023/12/15 00:06:33;;;;;;;33.13;18.45;;;6.50;99.90;;;;;;4992180;28;20129;-67
2023/12/15 00:08:58;;;;;;;35.45;18.67;;;6.60;99.90;;;;;;4990723;28;20107;-66
2023/12/15 00:11:24;;;;;;;29.75;17.85;;;6.60;99.90;;;;;;4987581;28;20030;-66
2023/12/15 00:13:50;;;;;;;35.72;18.35;;;6.70;99.90;;;;;;4988869;28;20053;-67
2023/12/15 00:16:15;;;;;;;31.83;18.95;;;6.70;99.90;;;;;;4997762;28;20050;-67
2023/12/15 00:18:41;;;;;;;32.67;19.00;;;6.70;99.90;;;;;;4992327;28;20053;-66
2023/12/15 00:21:07;;;;;;;27.13;17.10;;;6.60;99.90;;;;;;4988875;28;20042;-66
2023/12/15 00:23:34;;;;;;;36.88;19.55;;;6.80;99.90;;;;;;4988713;28;20049;-66
2023/12/15 00:26:00;;;;;;;34.00;19.42;;;6.70;99.90;;;;;;4987607;28;20056;-67
2023/12/15 00:28:25;;;;;;;31.60;18.38;;;6.70;99.90;;;;;;4990211;28;20161;-67
2023/12/15 00:30:51;;;;;;;36.67;19.10;;;6.80;99.90;;;;;;4990687;28;20042;-67
2023/12/15 00:33:17;;;;;;;32.20;19.00;;;6.70;99.90;;;;;;4988157;28;20075;-66
2023/12/15 00:35:46;;;;;;;38.38;19.95;;;6.70;99.90;;;;;;4987970;28;20470;-67
2023/12/15 00:38:11;;;;;;;37.25;20.40;;;6.80;99.90;;;;;;4987395;28;20571;-67
2023/12/15 00:40:37;;;;;;;34.67;20.30;;;6.80;99.90;;;;;;4989109;28;20042;-67
2023/12/15 00:43:04;;;;;;;36.78;20.45;;;6.80;99.90;;;;;;4988010;28;20295;-67
2023/12/15 00:45:30;;;;;;;40.08;19.85;;;6.90;99.90;;;;;;4989124;28;20053;-67
2023/12/15 00:47:56;;;;;;;31.60;18.35;;;6.80;99.90;;;;;;4970665;28;20565;-67
2023/12/15 00:50:21;;;;;;;35.67;19.50;;;6.80;99.90;;;;;;4988978;28;20034;-68
2023/12/15 00:52:47;;;;;;;33.03;19.92;;;6.80;99.90;;;;;;4981621;28;20505;-66
2023/12/15 00:55:13;;;;;;;37.67;19.38;;;6.90;99.90;;;;;;4987179;28;20077;-67
2023/12/15 00:57:39;;;;;;;35.13;19.98;;;7.00;99.90;;;;;;4987361;28;20415;-67
2023/12/15 01:00:05;;;;;;;45.00;22.27;;;6.90;99.90;;;;;;4990334;28;20413;-67
2023/12/15 01:02:31;;;;;;;45.88;21.90;;;6.90;99.90;;;;;;4990033;28;20049;-66
2023/12/15 01:04:57;;;;;;;36.75;21.65;;;6.90;99.90;;;;;;4994978;28;20302;-68
2023/12/15 01:07:23;;;;;;;37.03;22.83;;;7.00;99.90;;;;;;4993621;28;20042;-66
2023/12/15 01:09:49;;;;;;;40.38;23.08;;;6.90;99.90;;;;;;4997720;28;20088;-67
2023/12/15 01:12:14;;;;;;;40.08;22.95;;;7.00;99.90;;;;;;4991113;28;20205;-67
2023/12/15 01:14:40;;;;;;;46.78;24.15;;;7.00;99.90;;;;;;4988977;28;20576;-67
2023/12/15 01:17:06;;;;;;;41.30;22.90;;;6.90;99.90;;;;;;4986932;28;20038;-67
2023/12/15 01:19:32;;;;;;;42.17;22.30;;;7.00;99.90;;;;;;4995076;28;20535;-68
2023/12/15 01:21:57;;;;;;;40.50;22.77;;;7.00;99.90;;;;;;4999519;28;20034;-67
2023/12/15 01:24:23;;;;;;;45.13;24.02;;;7.10;99.90;;;;;;4992088;28;20330;-66
2023/12/15 01:26:49;;;;;;;50.92;23.83;;;7.10;99.90;;;;;;4999991;28;20400;-67
2023/12/15 01:29:15;;;;;;;43.30;24.00;;;7.10;99.90;;;;;;4993994;28;20038;-67
2023/12/15 01:31:41;;;;;;;41.47;24.75;;;7.10;99.90;;;;;;4989110;28;20142;-67
2023/12/15 01:34:06;;;;;;;45.70;23.48;;;7.10;99.90;;;;;;5001157;28;20044;-67
2023/12/15 01:36:32;;;;;;;51.67;25.55;;;7.20;99.90;;;;;;5004266;28;20407;-67
2023/12/15 01:38:58;;;;;;;47.75;25.20;;;7.20;99.90;;;;;;4999565;28;20536;-66
2023/12/15 01:41:24;;;;;;;51.40;26.05;;;7.20;99.90;;;;;;4991732;28;20642;-67
2023/12/15 01:43:49;;;;;;;53.47;25.70;;;7.20;99.90;;;;;;4996441;28;20042;-67
2023/12/15 01:46:15;;;;;;;47.92;26.25;;;7.20;99.90;;;;;;4992721;28;20048;-67
2023/12/15 01:48:41;;;;;;;50.20;26.98;;;7.10;99.90;;;;;;4991899;28;20810;-67
2023/12/15 01:51:07;;;;;;;55.97;26.80;;;7.20;99.90;;;;;;4988040;28;20104;-66
2023/12/15 01:53:33;;;;;;;46.78;25.98;;;7.20;99.90;;;;;;4987126;28;20182;-66
2023/12/15 01:55:59;;;;;;;56.35;26.60;;;7.30;99.90;;;;;;4988378;28;20050;-66
2023/12/15 01:58:25;;;;;;;57.55;28.33;;;7.20;99.90;;;;;;4987404;28;20528;-67
2023/12/15 02:00:51;;;;;;;66.15;29.35;;;7.20;99.90;;;;;;4986635;28;20052;-67
2023/12/15 02:03:17;;;;;;;56.40;28.17;;;7.30;99.90;;;;;;4987519;28;20092;-66
2023/12/15 02:05:42;;;;;;;67.40;28.58;;;7.20;99.90;;;;;;4986256;28;20054;-66
2023/12/15 02:08:08;;;;;;;63.50;29.55;;;7.30;99.90;;;;;;4988991;28;20039;-66
2023/12/15 02:10:38;;;;;;;64.82;28.83;;;7.30;99.90;;;;;;4993410;28;20069;-66
2023/12/15 02:13:03;;;;;;;63.15;28.40;;;7.30;99.90;;;;;;4979035;28;20045;-66
2023/12/15 02:15:29;;;;;;;58.17;29.30;;;7.40;99.90;;;;;;4992819;28;20054;-66
2023/12/15 02:17:55;;;;;;;63.60;29.58;;;7.30;99.90;;;;;;4992541;28;20038;-66
2023/12/15 02:20:21;;;;;;;68.05;29.70;;;7.40;99.90;;;;;;4992291;28;20072;-66
2023/12/15 02:22:46;;;;;;;56.45;28.35;;;7.40;99.90;;;;;;4990181;28;20064;-67
2023/12/15 02:25:12;;;;;;;52.38;27.98;;;7.40;99.90;;;;;;4990908;28;20061;-67
2023/12/15 02:27:39;;;;;;;56.80;27.67;;;7.40;99.90;;;;;;4993359;28;20084;-66
2023/12/15 02:30:06;;;;;;;59.70;27.13;;;7.40;99.90;;;;;;4994866;28;20050;-67
2023/12/15 02:32:31;;;;;;;54.88;28.45;;;7.50;99.90;;;;;;4993896;28;20046;-67
2023/12/15 02:34:57;;;;;;;63.78;28.60;;;7.50;99.90;;;;;;4991982;28;20092;-68
2023/12/15 02:37:23;;;;;;;57.50;27.67;;;7.40;99.90;;;;;;4992053;28;20034;-66
2023/12/15 02:39:48;;;;;;;52.15;26.85;;;7.40;99.90;;;;;;4993766;28;20065;-67
2023/12/15 02:42:14;;;;;;;54.13;26.58;;;7.40;99.90;;;;;;4993013;28;20612;-67
2023/12/15 02:44:43;;;;;;;60.95;27.83;;;7.30;99.90;;;;;;4991672;28;20033;-66
2023/12/15 02:47:08;;;;;;;48.22;25.85;;;7.30;99.90;;;;;;4993701;28;20052;-66
2023/12/15 02:49:38;;;;;;;57.20;27.48;;;7.40;99.90;;;;;;4995405;28;20042;-67
2023/12/15 02:52:04;;;;;;;51.83;24.60;;;7.40;99.90;;;;;;5010100;28;20493;-66
2023/12/15 02:54:30;;;;;;;45.38;26.98;;;7.50;99.90;;;;;;5005598;28;20064;-66
2023/12/15 02:56:56;;;;;;;45.30;25.27;;;7.40;99.90;;;;;;5004322;28;20033;-66
2023/12/15 02:59:24;;;;;;;53.60;26.40;;;7.40;99.90;;;;;;5005071;28;20397;-67
2023/12/15 03:01:50;;;;;;;52.37;25.13;;;7.40;99.90;;;;;;4999564;28;20042;-66
2023/12/15 03:04:16;;;;;;;55.28;25.23;;;7.50;99.90;;;;;;4996673;28;20109;-67
2023/12/15 03:06:41;;;;;;;49.50;25.05;;;7.40;99.90;;;;;;4993060;28;20386;-66
2023/12/15 03:09:07;;;;;;;49.05;25.60;;;7.40;99.90;;;;;;4993314;28;20181;-67
2023/12/15 03:11:33;;;;;;;44.03;23.67;;;7.40;99.90;;;;;;4991448;28;20081;-67
2023/12/15 03:13:59;;;;;;;47.70;25.27;;;7.30;99.90;;;;;;4993156;28;20077;-67
2023/12/15 03:16:25;;;;;;;45.30;23.67;;;7.30;99.90;;;;;;4991941;28;20068;-66
2023/12/15 03:18:51;;;;;;;41.05;25.88;;;7.20;99.90;;;;;;4991481;28;20446;-67
2023/12/15 03:21:16;;;;;;;50.53;24.83;;;7.30;99.90;;;;;;4987618;28;20038;-67
2023/12/15 03:23:42;;;;;;;41.22;25.33;;;7.20;99.90;;;;;;4989581;28;20085;-66
2023/12/15 03:26:08;;;;;;;47.25;23.80;;;7.10;99.90;;;;;;4989013;28;20075;-66
2023/12/15 03:28:34;;;;;;;54.17;25.02;;;7.10;99.90;;;;;;4989916;28;20052;-67
2023/12/15 03:30:59;;;;;;;49.70;25.83;;;7.10;99.90;;;;;;4991563;28;20039;-66
2023/12/15 03:33:25;;;;;;;46.67;24.45;;;7.00;99.90;;;;;;4995066;28;20042;-66
2023/12/15 03:35:52;;;;;;;49.42;23.42;;;7.00;99.90;;;;;;4998207;28;20042;-66
2023/12/15 03:38:18;;;;;;;39.30;23.23;;;7.00;99.90;;;;;;4990502;28;20610;-67
2023/12/15 03:40:44;;;;;;;41.42;23.17;;;7.00;99.90;;;;;;4989979;28;20041;-67
2023/12/15 03:43:10;;;;;;;44.65;24.50;;;6.80;99.90;;;;;;4991100;28;20053;-67
2023/12/15 03:45:36;;;;;;;41.90;23.10;;;6.80;99.90;;;;;;4991365;28;20075;-66
2023/12/15 03:48:02;;;;;;;46.42;23.63;;;6.70;99.90;;;;;;4998179;28;20481;-67
2023/12/15 03:50:27;;;;;;;46.30;24.48;;;6.60;99.90;;;;;;5001735;28;20045;-67
2023/12/15 03:52:53;;;;;;;48.95;23.67;;;6.70;99.90;;;;;;4989939;28;20136;-67
2023/12/15 03:55:19;;;;;;;53.75;24.38;;;6.60;99.90;;;;;;4989796;28;20127;-67
2023/12/15 03:57:45;;;;;;;43.03;23.83;;;6.60;99.90;;;;;;4990690;28;20074;-67
2023/12/15 04:00:11;;;;;;;40.97;23.95;;;6.70;99.90;;;;;;4984077;28;20285;-67
2023/12/15 04:02:37;;;;;;;50.15;24.20;;;6.60;99.90;;;;;;4999713;28;20067;-65
2023/12/15 04:05:03;;;;;;;46.47;25.67;;;6.70;99.90;;;;;;4999602;28;20421;-67
2023/12/15 04:07:29;;;;;;;53.13;25.25;;;6.80;99.90;;;;;;4997365;28;20076;-67
2023/12/15 04:09:54;;;;;;;43.88;23.17;;;6.70;99.90;;;;;;5004009;28;20130;-67
2023/12/15 04:12:20;;;;;;;43.72;23.75;;;6.70;99.90;;;;;;4987875;28;20729;-66
2023/12/15 04:14:46;;;;;;;44.22;23.50;;;6.80;99.90;;;;;;5001836;28;20393;-67
2023/12/15 04:17:11;;;;;;;39.80;23.23;;;6.70;99.90;;;;;;5001320;28;20465;-66
2023/12/15 04:19:37;;;;;;;39.30;21.15;;;6.80;99.90;;;;;;5003252;28;20456;-66
2023/12/15 04:22:03;;;;;;;38.25;22.27;;;6.70;99.90;;;;;;5004760;28;20050;-66
2023/12/15 04:24:29;;;;;;;42.40;21.55;;;6.70;99.90;;;;;;4993334;28;20053;-67
2023/12/15 04:26:54;;;;;;;43.72;21.83;;;6.70;99.90;;;;;;4994980;28;20061;-67
2023/12/15 04:29:20;;;;;;;44.67;21.77;;;6.60;99.90;;;;;;4997227;28;20126;-67
2023/12/15 04:31:46;;;;;;;47.53;22.08;;;6.60;99.90;;;;;;5004783;28;20041;-67
2023/12/15 04:34:12;;;;;;;42.97;20.65;;;6.60;99.90;;;;;;4983344;28;20506;-66
2023/12/15 04:36:39;;;;;;;48.65;21.70;;;6.50;99.90;;;;;;4999213;28;20089;-67
2023/12/15 04:39:05;;;;;;;53.45;20.80;;;6.60;99.90;;;;;;5004931;28;20037;-66
2023/12/15 04:41:31;;;;;;;43.03;20.85;;;6.50;99.90;;;;;;5000454;28;20111;-66
2023/12/15 04:43:57;;;;;;;33.35;20.52;;;6.60;99.90;;;;;;5000251;28;20046;-67
2023/12/15 04:46:29;;;;;;;36.75;20.73;;;6.60;99.90;;;;;;4997405;28;20046;-66
2023/12/15 04:48:59;;;;;;;36.72;20.08;;;6.70;99.90;;;;;;5001785;28;20399;-66
2023/12/15 04:51:25;;;;;;;43.10;20.73;;;6.70;99.90;;;;;;5001089;28;20046;-66
2023/12/15 04:53:51;;;;;;;36.67;19.90;;;6.60;99.90;;;;;;5001572;28;20093;-66
2023/12/15 04:56:17;;;;;;;33.78;19.80;;;6.60;99.90;;;;;;4989447;28;20042;-66
2023/12/15 04:58:44;;;;;;;38.65;19.83;;;6.80;99.90;;;;;;5002606;28;20042;-65
2023/12/15 05:01:13;;;;;;;43.75;20.48;;;6.70;99.90;;;;;;5003462;28;20638;-66
2023/12/15 05:03:40;;;;;;;40.83;18.80;;;6.70;99.90;;;;;;5001111;28;20046;-65
2023/12/15 05:06:16;;;;;;;36.55;20.30;;;6.70;99.90;;;;;;4995960;28;20045;-66
2023/12/15 05:08:42;;;;;;;43.50;18.88;;;6.70;99.90;;;;;;4991719;28;20068;-67
2023/12/15 05:11:07;;;;;;;45.80;20.13;;;6.80;99.90;;;;;;4997671;28;20088;-66
2023/12/15 05:13:33;;;;;;;43.25;19.85;;;6.70;99.90;;;;;;5003319;28;20042;-66
2023/12/15 05:15:59;;;;;;;45.38;19.30;;;6.80;99.90;;;;;;5004164;28;20053;-66
2023/12/15 05:18:24;;;;;;;38.45;18.63;;;6.80;99.90;;;;;;4998005;28;20073;-65
2023/12/15 05:20:51;;;;;;;50.15;19.63;;;6.80;99.90;;;;;;4999757;28;20041;-67
2023/12/15 05:23:16;;;;;;;43.63;19.15;;;6.70;99.90;;;;;;5000894;28;20127;-67
2023/12/15 05:25:42;;;;;;;39.90;18.67;;;6.60;99.90;;;;;;5000268;28;20172;-66
2023/12/15 05:28:08;;;;;;;41.53;17.00;;;6.60;99.90;;;;;;5003807;28;20097;-67
2023/12/15 05:30:34;;;;;;;41.28;19.42;;;6.50;99.90;;;;;;5000131;28;20045;-67
2023/12/15 05:33:00;;;;;;;39.05;17.15;;;6.60;99.90;;;;;;5001659;28;20030;-66
2023/12/15 05:35:25;;;;;;;36.75;17.13;;;6.60;99.90;;;;;;5001616;28;20120;-67
2023/12/15 05:37:52;;;;;;;34.47;17.35;;;6.40;99.90;;;;;;5000613;28;20048;-66
2023/12/15 05:40:17;;;;;;;42.72;19.08;;;6.50;99.90;;;;;;4995334;28;20053;-67
2023/12/15 05:42:43;;;;;;;42.40;17.38;;;6.50;99.90;;;;;;5000072;28;20046;-66
2023/12/15 05:45:10;;;;;;;34.90;17.77;;;6.50;99.90;;;;;;5001523;28;20042;-66
2023/12/15 05:47:37;;;;;;;35.67;17.38;;;6.50;99.90;;;;;;5002014;28;20515;-67
2023/12/15 05:50:03;;;;;;;34.80;16.10;;;6.50;99.90;;;;;;5003249;28;20504;-66
2023/12/15 05:52:29;;;;;;;39.40;15.85;;;6.40;99.90;;;;;;5002647;28;20512;-66
2023/12/15 05:54:54;;;;;;;38.38;16.30;;;6.30;99.90;;;;;;5003233;28;20046;-66
2023/12/15 05:57:20;;;;;;;33.35;16.27;;;6.40;99.90;;;;;;5002461;28;20508;-67
2023/12/15 05:59:46;;;;;;;50.10;15.93;;;6.30;99.90;;;;;;5003174;28;20050;-67
2023/12/15 06:02:11;;;;;;;35.50;15.70;;;6.40;99.90;;;;;;5003357;28;20082;-67
2023/12/15 06:04:37;;;;;;;47.53;17.30;;;6.40;99.90;;;;;;5002829;28;20117;-66
2023/12/15 06:07:03;;;;;;;34.45;15.80;;;6.50;99.90;;;;;;5000415;28;20064;-67
2023/12/15 06:09:29;;;;;;;38.90;14.85;;;6.40;99.90;;;;;;4997995;28;20624;-66
2023/12/15 06:11:55;;;;;;;36.47;15.57;;;6.40;99.90;;;;;;4999268;28;20049;-67
2023/12/15 06:14:20;;;;;;;45.97;15.45;;;6.40;99.90;;;;;;4995950;28;20472;-66
2023/12/15 06:16:47;;;;;;;41.63;15.50;;;6.30;99.90;;;;;;4997071;28;20053;-67
2023/12/15 06:19:13;;;;;;;42.10;15.98;;;6.40;99.90;;;;;;4998336;28;20049;-67
2023/12/15 06:21:39;;;;;;;38.85;16.75;;;6.30;99.90;;;;;;4997790;28;20529;-66
2023/12/15 06:24:05;;;;;;;36.45;15.65;;;6.30;99.90;;;;;;5001966;28;20485;-66
2023/12/15 06:26:31;;;;;;;40.15;16.38;;;6.40;99.90;;;;;;5002653;28;20038;-66
2023/12/15 06:28:57;;;;;;;38.00;15.45;;;6.30;99.90;;;;;;4996192;28;20516;-66
2023/12/15 06:31:25;;;;;;;34.90;15.57;;;6.20;99.90;;;;;;4999256;28;20038;-66
2023/12/15 06:33:52;;;;;;;37.67;15.07;;;6.20;99.90;;;;;;5000620;28;20038;-66
2023/12/15 06:36:18;;;;;;;41.13;15.55;;;6.20;99.90;;;;;;4999305;28;20112;-65
2023/12/15 06:38:44;;;;;;;34.85;15.57;;;6.10;99.90;;;;;;4999135;28;20125;-66
2023/12/15 06:41:14;;;;;;;34.45;14.82;;;6.20;99.90;;;;;;4998083;28;20041;-66
2023/12/15 06:43:41;;;;;;;40.10;16.25;;;6.20;99.90;;;;;;4999154;28;20037;-66
2023/12/15 06:46:07;;;;;;;33.20;14.50;;;6.10;99.90;;;;;;4997894;28;20042;-65
2023/12/15 06:48:33;;;;;;;39.83;15.15;;;6.30;99.90;;;;;;4980967;28;20128;-66
2023/12/15 06:50:59;;;;;;;30.80;14.45;;;6.10;99.90;;;;;;4997715;28;20438;-66
2023/12/15 06:53:24;;;;;;;43.33;15.32;;;6.20;99.90;;;;;;4998817;28;20469;-65
2023/12/15 06:55:50;;;;;;;41.63;15.07;;;6.10;99.90;;;;;;4993341;28;20034;-67
2023/12/15 06:58:16;;;;;;;34.33;14.00;;;6.20;99.90;;;;;;5001896;28;20038;-66
2023/12/15 07:00:42;;;;;;;41.65;14.23;;;6.10;99.90;;;;;;5001768;28;20093;-65
2023/12/15 07:03:08;;;;;;;29.73;13.25;;;6.10;99.90;;;;;;5000643;28;20045;-66
2023/12/15 07:05:37;;;;;;;32.78;13.55;;;6.10;99.90;;;;;;5001689;28;20045;-65
2023/12/15 07:08:03;;;;;;;33.10;14.15;;;6.10;99.90;;;;;;5002795;28;20034;-65
2023/12/15 07:10:29;;;;;;;28.88;12.93;;;6.00;99.90;;;;;;5001134;28;20111;-66
2023/12/15 07:12:55;;;;;;;30.83;12.73;;;5.90;99.90;;;;;;5001694;28;20033;-67
2023/12/15 07:15:21;;;;;;;22.42;11.55;;;5.90;99.90;;;;;;5003072;28;20069;-66
2023/12/15 07:17:48;;;;;;;42.63;14.02;;;5.90;99.90;;;;;;5001736;28;20513;-66
2023/12/15 07:20:13;;;;;;;31.67;13.10;;;5.70;99.90;;;;;;4998900;28;20084;-66
2023/12/15 07:22:39;;;;;;;30.92;12.77;;;5.90;99.90;;;;;;4999899;28;20120;-66
2023/12/15 07:25:05;;;;;;;33.10;12.88;;;5.90;99.90;;;;;;4997909;28;20052;-66
2023/12/15 07:27:31;;;;;;;31.25;11.82;;;6.00;99.90;;;;;;4997272;28;20049;-66
2023/12/15 07:29:57;;;;;;;44.25;12.57;;;5.90;99.90;;;;;;5000947;28;21766;-67
2023/12/15 07:32:22;;;;;;;33.55;13.10;;;5.90;99.90;;;;;;4999797;28;20318;-67
2023/12/15 07:34:48;;;;;;;41.78;12.32;;;5.90;99.90;;;;;;5000880;28;20231;-65
2023/12/15 07:37:14;;;;;;;39.42;12.10;;;6.00;99.90;;;;;;5000231;28;20183;-67
2023/12/15 07:39:40;;;;;;;36.92;11.63;;;6.10;99.90;;;;;;4997997;28;20116;-66
2023/12/15 07:42:05;;;;;;;29.27;11.73;;;6.00;99.90;;;;;;5001312;28;20049;-66
2023/12/15 07:44:31;;;;;;;34.05;11.80;;;5.90;99.90;;;;;;4999252;28;20053;-66
2023/12/15 07:46:57;;;;;;;36.65;11.85;;;5.90;99.90;;;;;;5002253;28;20974;-65
2023/12/15 07:49:24;;;;;;;37.67;11.38;;;5.90;99.90;;;;;;4983888;28;20128;-66
2023/12/15 07:51:50;;;;;;;33.38;11.40;;;5.90;99.90;;;;;;4993310;28;20525;-64
2023/12/15 07:54:18;;;;;;;37.67;11.45;;;6.00;99.90;;;;;;5000723;28;20038;-64
2023/12/15 07:56:44;;;;;;;33.67;10.90;;;6.00;99.90;;;;;;5001481;28;20045;-65
2023/12/15 07:59:10;;;;;;;35.83;12.65;;;6.10;99.90;;;;;;5000632;28;20346;-66
2023/12/15 08:01:36;;;;;;;44.75;14.30;;;6.10;99.90;;;;;;5001289;28;20052;-65
2023/12/15 08:04:01;;;;;;;37.47;11.98;;;6.10;99.90;;;;;;4997697;28;20044;-65
2023/12/15 08:06:28;;;;;;;38.47;11.80;;;6.10;99.90;;;;;;4996928;28;20060;-64
2023/12/15 08:08:54;;;;;;;38.65;11.15;;;6.10;99.90;;;;;;5000729;28;20046;-65
2023/12/15 08:11:22;;;;;;;29.92;10.35;;;6.20;99.90;;;;;;5000068;28;20397;-64
2023/12/15 08:13:48;;;;;;;32.50;9.88;;;6.30;99.90;;;;;;4999265;28;20038;-64
2023/12/15 08:16:14;;;;;;;37.45;11.18;;;6.30;99.90;;;;;;5000010;28;20042;-64
2023/12/15 08:18:41;;;;;;;34.45;11.48;;;6.40;99.90;;;;;;5000452;28;20493;-65
2023/12/15 08:21:10;;;;;;;28.92;10.10;;;6.40;99.90;;;;;;5000327;28;20113;-65
2023/12/15 08:23:36;;;;;;;;;;;6.50;99.90;;;;;;5001837;28;20089;-64
2023/12/15 08:26:02;;;;;;;32.08;9.93;;;6.50;99.90;;;;;;5001444;28;19922;-64
2023/12/15 08:28:27;;;;;;;28.88;9.75;;;6.50;99.90;;;;;;5000840;28;20046;-65
2023/12/15 08:30:53;;;;;;;23.35;9.63;;;6.50;99.90;;;;;;5001161;28;20064;-65
2023/12/15 08:33:19;;;;;;;27.45;9.15;;;6.60;99.90;;;;;;5001226;28;20526;-65
2023/12/15 08:35:44;;;;;;;37.10;9.52;;;6.60;99.90;;;;;;4999149;28;20070;-65
2023/12/15 08:38:10;;;;;;;38.72;10.35;;;6.70;99.90;;;;;;5001068;28;20121;-64
2023/12/15 08:40:36;;;;;;;31.70;9.35;;;6.60;99.90;;;;;;5000100;28;20437;-64
2023/12/15 08:43:02;;;;;;;44.15;9.20;;;6.70;99.90;;;;;;5001058;28;20335;-65
2023/12/15 08:45:28;;;;;;;31.30;9.55;;;6.70;99.90;;;;;;5000750;28;20463;-65
2023/12/15 08:47:53;;;;;;;36.10;9.30;;;6.70;99.90;;;;;;4999460;28;20041;-64
2023/12/15 08:50:19;;;;;;;33.83;10.45;;;6.70;99.90;;;;;;4999792;28;20492;-65
2023/12/15 08:52:45;;;;;;;39.03;9.95;;;6.70;99.90;;;;;;4999338;28;20149;-65
2023/12/15 08:55:11;;;;;;;25.50;8.73;;;6.70;99.90;;;;;;5000033;28;20048;-64
2023/12/15 08:57:37;;;;;;;40.70;9.55;;;6.70;99.90;;;;;;4994848;28;20057;-65
2023/12/15 09:00:04;;;;;;;29.13;9.55;;;6.80;99.90;;;;;;5000014;28;20037;-64
2023/12/15 09:02:30;;;;;;;39.58;10.18;;;6.90;99.90;;;;;;5000627;28;20048;-64
2023/12/15 09:04:56;;;;;;;29.15;9.40;;;6.90;99.90;;;;;;4982714;28;20509;-64
2023/12/15 09:07:23;;;;;;;41.17;8.93;;;6.90;99.90;;;;;;4982237;28;20069;-66
2023/12/15 09:09:49;;;;;;;37.45;9.52;;;6.90;99.90;;;;;;4997869;28;20489;-64
2023/12/15 09:12:15;;;;;;;46.83;9.93;;;7.00;99.90;;;;;;4997680;28;20569;-64
2023/12/15 09:14:41;;;;;;;31.20;8.80;;;7.00;99.90;;;;;;4999915;28;20257;-65
2023/12/15 09:17:11;;;;;;;41.78;9.55;;;7.00;99.90;;;;;;5000276;28;20038;-64
2023/12/15 09:19:39;;;;;;;20.17;7.95;;;7.00;99.90;;;;;;4991513;28;20128;-64
2023/12/15 09:22:05;;;;;;;27.75;8.27;;;7.10;99.90;;;;;;4996416;28;20497;-65
2023/12/15 09:24:33;;;;;;;30.55;7.97;;;7.20;99.90;;;;;;5001791;28;20054;-64
2023/12/15 09:26:59;;;;;;;28.88;9.45;;;7.10;99.90;;;;;;4999275;28;20591;-65
2023/12/15 09:29:25;;;;;;;30.63;8.32;;;7.10;99.90;;;;;;5001041;28;20327;-64
2023/12/15 09:31:51;;;;;;;26.48;7.90;;;7.10;99.90;;;;;;5000848;28;20499;-64
2023/12/15 09:34:18;;;;;;;27.65;7.78;;;7.20;99.90;;;;;;4999105;28;20041;-65
2023/12/15 09:36:44;;;;;;;37.13;8.93;;;7.20;99.90;;;;;;5000549;28;20050;-64
2023/12/15 09:39:10;;;;;;;29.42;8.13;;;7.30;99.90;;;;;;4999245;28;20136;-64
2023/12/15 09:41:35;;;;;;;33.13;7.90;;;7.50;99.90;;;;;;5000405;28;20416;-64
2023/12/15 09:44:01;;;;;;;26.42;8.60;;;7.30;99.90;;;;;;4997684;28;20049;-64
2023/12/15 09:46:27;;;;;;;26.95;7.88;;;7.40;99.90;;;;;;5000028;28;20125;-64
2023/12/15 09:48:53;;;;;;;23.65;6.95;;;7.40;99.90;;;;;;4999864;28;20044;-65
2023/12/15 09:51:24;;;;;;;29.50;8.32;;;7.50;99.90;;;;;;4999864;28;20180;-64
2023/12/15 09:53:51;;;;;;;22.52;6.75;;;7.60;99.90;;;;;;4999990;28;20051;-66
2023/12/15 09:56:18;;;;;;;33.80;7.38;;;7.50;99.90;;;;;;4999610;28;20046;-64
2023/12/15 09:58:44;;;;;;;29.45;7.03;;;7.60;99.90;;;;;;4998875;28;20088;-64
2023/12/15 10:01:11;;;;;;;35.13;7.53;;;7.60;99.90;;;;;;4997056;28;20042;-65
2023/12/15 10:03:37;;;;;;;31.40;7.57;;;7.70;99.90;;;;;;4998426;28;20072;-64
2023/12/15 10:06:03;;;;;;;35.05;8.35;;;7.70;99.90;;;;;;4999571;28;20047;-64
2023/12/15 10:08:40;;;;;;;31.48;7.75;;;7.80;99.90;;;;;;5000183;28;20046;-65
2023/12/15 10:11:06;;;;;;;31.02;6.95;;;7.80;99.90;;;;;;5000091;28;20571;-65
2023/12/15 10:13:31;;;;;;;39.92;8.65;;;7.90;99.90;;;;;;4999436;28;20105;-65
2023/12/15 10:15:57;;;;;;;41.08;7.28;;;8.00;99.90;;;;;;4997987;28;20540;-65
2023/12/15 10:18:23;;;;;;;34.50;7.78;;;8.00;99.90;;;;;;4999911;28;20053;-66
2023/12/15 10:20:49;;;;;;;33.88;6.75;;;8.00;99.90;;;;;;4999959;28;20112;-64
2023/12/15 10:23:15;;;;;;;39.75;6.93;;;8.00;99.90;;;;;;4997177;28;20048;-64
2023/12/15 10:25:48;;;;;;;38.00;6.97;;;8.10;99.90;;;;;;4999485;28;20078;-64
2023/12/15 10:28:15;;;;;;;32.75;6.55;;;8.20;99.90;;;;;;4998785;28;20493;-64
2023/12/15 10:30:41;;;;;;;40.05;7.90;;;8.20;99.90;;;;;;5000578;28;20053;-64
2023/12/15 10:33:07;;;;;;;37.30;7.55;;;8.30;99.90;;;;;;5002939;28;20038;-64
2023/12/15 10:35:36;;;;;;;34.53;7.53;;;8.20;99.90;;;;;;5002054;28;20069;-65
2023/12/15 10:38:02;;;;;;;;;;;8.30;99.90;;;;;;5002104;28;20048;-64
2023/12/15 10:40:28;;;;;;;37.53;8.05;;;8.30;99.90;;;;;;5002912;28;19925;-65
2023/12/15 10:42:54;;;;;;;41.13;8.00;;;8.40;99.90;;;;;;5004187;28;20492;-65
2023/12/15 10:45:21;;;;;;;33.28;6.32;;;8.30;99.90;;;;;;5002091;28;20818;-64
2023/12/15 10:47:48;;;;;;;34.63;6.53;;;8.40;99.90;;;;;;5002872;28;20052;-65
2023/12/15 10:50:15;;;;;;;37.50;7.55;;;8.40;99.90;;;;;;5003111;28;20046;-64
2023/12/15 10:52:43;;;;;;;32.20;7.22;;;8.50;99.90;;;;;;5003440;28;20140;-66
2023/12/15 10:55:12;;;;;;;36.15;6.43;;;8.50;99.90;;;;;;5002077;28;20532;-64
2023/12/15 10:57:38;;;;;;;36.35;7.13;;;8.50;99.90;;;;;;4984465;28;20042;-66
2023/12/15 11:00:05;;;;;;;48.55;8.00;;;8.50;99.90;;;;;;5000823;28;20033;-65
2023/12/15 11:02:33;;;;;;;29.40;6.70;;;8.60;99.90;;;;;;5002898;28;20117;-66
2023/12/15 11:05:00;;;;;;;40.13;7.15;;;8.60;99.90;;;;;;5002713;28;20085;-64
2023/12/15 11:07:27;;;;;;;42.53;7.60;;;8.70;99.90;;;;;;5002870;28;20591;-65
2023/12/15 11:09:55;;;;;;;40.67;7.53;;;8.60;99.90;;;;;;5000778;28;20485;-66
2023/12/15 11:12:24;;;;;;;35.38;6.50;;;8.70;99.90;;;;;;5001521;28;20528;-64
2023/12/15 11:15:10;;;;;;;30.65;7.53;;;8.70;99.90;;;;;;5002650;28;20390;-64
2023/12/15 11:17:46;;;;;;;36.40;7.50;;;8.80;99.90;;;;;;5002551;28;20042;-65
2023/12/15 11:20:33;;;;;;;38.38;7.15;;;8.90;99.90;;;;;;5000594;28;20469;-65
2023/12/15 11:23:07;;;;;;;38.85;6.45;;;8.90;99.90;;;;;;4999458;28;20049;-65
2023/12/15 11:25:36;;;;;;;36.85;6.82;;;9.00;99.90;;;;;;5002167;28;20072;-65
2023/12/15 11:28:08;;;;;;;38.08;7.30;;;8.90;99.90;;;;;;4999444;28;20347;-64
2023/12/15 11:30:41;;;;;;;36.65;7.25;;;9.10;99.90;;;;;;5001064;28;20544;-65
2023/12/15 11:33:29;;;;;;;39.22;8.40;;;9.10;99.90;;;;;;5000532;28;20519;-65
2023/12/15 11:36:02;;;;;;;36.58;6.90;;;9.10;99.90;;;;;;4983699;28;20050;-66
2023/12/15 11:38:29;;;;;;;39.47;8.20;;;9.20;99.90;;;;;;5001119;28;20508;-65
2023/12/15 11:40:56;;;;;;;32.38;7.35;;;9.40;99.90;;;;;;5000330;28;20046;-65
2023/12/15 11:43:23;;;;;;;38.85;7.32;;;9.50;99.90;;;;;;5000416;28;20184;-65
2023/12/15 11:45:53;;;;;;;34.47;7.53;;;9.50;99.90;;;;;;5001825;28;20046;-64
2023/12/15 11:48:21;;;;;;;29.73;7.25;;;9.50;99.90;;;;;;4981827;28;20098;-66
2023/12/15 11:50:47;;;;;;;35.95;7.00;;;9.60;99.90;;;;;;5002342;28;20116;-64
2023/12/15 11:53:14;;;;;;;30.40;6.45;;;9.60;99.90;;;;;;4998837;28;20063;-66
2023/12/15 11:55:40;;;;;;;39.25;6.90;;;9.50;99.90;;;;;;5000524;28;20042;-64
2023/12/15 11:58:06;;;;;;;32.40;6.25;;;9.60;99.90;;;;;;5001262;28;20045;-65
2023/12/15 12:00:33;;;;;;;35.63;6.38;;;9.70;99.90;;;;;;5001497;28;20046;-64
2023/12/15 12:02:59;;;;;;;36.70;7.35;;;9.60;99.90;;;;;;5001163;28;21310;-65
2023/12/15 12:05:26;;;;;;;41.33;7.32;;;9.70;99.90;;;;;;5001622;28;20116;-65
2023/12/15 12:07:52;;;;;;;28.30;6.88;;;9.60;99.90;;;;;;5001000;28;20040;-65
2023/12/15 12:10:18;;;;;;;51.40;7.30;;;9.70;99.90;;;;;;5001726;28;20323;-65
2023/12/15 12:12:44;;;;;;;32.03;6.25;;;9.70;99.90;;;;;;4997538;28;20558;-65
2023/12/15 12:15:10;;;;;;;38.50;7.00;;;9.70;99.90;;;;;;5001886;28;20044;-66
2023/12/15 12:17:39;;;;;;;45.78;8.38;;;9.70;99.90;;;;;;5000605;28;20550;-65
2023/12/15 12:20:11;;;;;;;;;;;9.70;99.90;;;;;;5001747;28;20038;-65
2023/12/15 12:22:41;;;;;;;27.73;6.75;;;9.70;99.90;;;;;;5001045;28;19925;-64
2023/12/15 12:25:10;;;;;;;35.10;6.25;;;9.70;99.90;;;;;;5001295;28;20045;-63
2023/12/15 12:27:36;;;;;;;;;;;9.60;99.90;;;;;;5001680;28;20077;-64
2023/12/15 12:30:10;;;;;;;44.08;7.55;;;9.70;99.90;;;;;;5000455;28;20076;-65
2023/12/15 12:32:36;;;;;;;32.95;6.18;;;9.60;99.90;;;;;;4999366;28;20440;-65
2023/12/15 12:35:03;;;;;;;35.70;6.95;;;9.60;99.90;;;;;;4994888;28;20083;-64
2023/12/15 12:37:29;;;;;;;34.67;6.53;;;9.60;99.90;;;;;;4999490;28;20050;-66